Flight Track Log - Related Links

Times and Time Zones

All times are in EST time to prevent confusion due to time zone crossing. See the N27XP flight status page for this flight to view local times or setup timezone preferences in your user account.

Time Position Orientation Groundspeed Altitude Reporting Facility
EST Latitude Longitude Course Direction KTS MPH feet Rate Location/Type
Fri 09:38:16 PM 35.8542 -78.8083 242° Southwest 188 216 1,500  Level Washington Center
Fri 09:39:31 PM 35.8231 -78.8814 242° Southwest 231 266 5,400 3,447 Climbing Washington Center
Fri 09:40:37 PM 35.8494 -78.9747 289° West 252 290 9,600 2,835 Climbing Washington Center
Fri 09:41:38 PM 35.8639 -79.0597 282° West 266 306 11,400 2,016 Climbing Washington Center
Fri 09:42:39 PM 35.8461 -79.1614 258° West 281 323 13,700 2,025 Climbing Washington Center
Fri 09:44:18 PM 35.8325 -79.3336 264° West 323 372 16,800 1,736 Climbing Atlanta Center
Fri 09:45:18 PM 35.8242 -79.4417 265° West 323 372 18,300 1,650 Climbing Atlanta Center
Fri 09:46:18 PM 35.8158 -79.5547 265° West 323 372 20,100 1,850 Climbing Atlanta Center
Fri 09:47:18 PM 35.8158 -79.6700 270° West 322 371 22,000 1,800 Climbing Atlanta Center
Fri 09:48:18 PM 35.8217 -79.7797 274° West 322 371 23,700 1,650 Climbing Atlanta Center
Fri 09:49:18 PM 35.8314 -79.8842 277° West 322 371 25,300 1,533 Climbing Atlanta Center
Fri 09:51:18 PM 35.8447 -80.0961 274° West 322 371 28,300 1,367 Climbing Atlanta Center
Fri 09:52:18 PM 35.8525 -80.2111 275° West 322 371 29,400 1,200 Climbing Atlanta Center
Fri 09:53:18 PM 35.8622 -80.3183 276° West 328 377 30,700 1,150 Climbing Atlanta Center
Fri 09:54:18 PM 35.8717 -80.4281 276° West 328 377 31,700 1,000 Climbing Atlanta Center
Fri 09:55:18 PM 35.8706 -80.5358 269° West 328 377 32,700 1,000 Climbing Atlanta Center
Fri 09:56:18 PM 35.8758 -80.6456 273° West 328 377 33,700 1,000 Climbing Atlanta Center
Fri 09:57:18 PM 35.8953 -80.7525 283° West 328 377 34,700 950 Climbing Atlanta Center
Fri 09:58:18 PM 35.9478 -80.8403 306° West 309 356 35,600 800 Climbing Atlanta Center
Fri 09:59:18 PM 36.0022 -80.9253 308° West 309 356 36,300 700 Climbing Atlanta Center
Fri 10:00:18 PM 36.0564 -81.0158 307° West 320 368 37,000 700 Climbing Atlanta Center
Fri 10:01:18 PM 36.1067 -81.1039 305° West 326 375 37,700 700 Climbing Atlanta Center
Fri 10:02:18 PM 36.1586 -81.1919 306° West 326 375 38,400 700 Climbing Atlanta Center
Fri 10:03:18 PM 36.2086 -81.2775 306° West 326 375 39,100 650 Climbing Atlanta Center
Fri 10:04:18 PM 36.2542 -81.3558 306° West 326 375 39,700 450 Climbing Atlanta Center
Fri 10:05:18 PM 36.3042 -81.4444 305° West 320 368 40,000 150 Climbing Atlanta Center
Fri 10:06:18 PM 36.3581 -81.5328 307° West 320 368 40,000  Level Atlanta Center
Fri 10:07:18 PM 36.4119 -81.6267 306° West 327 376 40,000  Level Atlanta Center
Fri 10:08:18 PM 36.4681 -81.7256 305° West 338 389 40,000  Level Atlanta Center
Fri 10:09:18 PM 36.5286 -81.8297 306° West 344 396 40,000  Level Atlanta Center
Fri 10:10:51 PM 36.6178 -81.9819 306° West 354 407 40,000  Level Indianapolis Center
Fri 10:11:53 PM 36.6753 -82.0828 305° West 357 411 40,000  Level Indianapolis Center
Fri 10:12:54 PM 36.7336 -82.1822 306° West 356 410 40,000  Level Indianapolis Center
Fri 10:13:55 PM 36.7917 -82.2831 306° West 358 412 40,000  Level Indianapolis Center
Fri 10:14:56 PM 36.8486 -82.3842 305° West 357 411 40,000  Level Indianapolis Center
Fri 10:15:58 PM 36.9058 -82.4850 305° West 356 410 40,000  Level Indianapolis Center
Fri 10:16:59 PM 36.9717 -82.5997 306° West 352 405 40,000  Level Indianapolis Center
Fri 10:18:00 PM 37.0283 -82.6994 305° West 353 406 40,000  Level Indianapolis Center
Fri 10:19:01 PM 37.0839 -82.7994 305° West 354 407 40,000  Level Indianapolis Center
Fri 10:20:02 PM 37.1406 -82.8992 306° West 355 409 40,000  Level Indianapolis Center
Fri 10:21:03 PM 37.1953 -82.9994 304° West 352 405 40,000  Level Indianapolis Center
Fri 10:22:05 PM 37.2508 -83.0994 305° West 349 402 40,000  Level Indianapolis Center
Fri 10:23:06 PM 37.3061 -83.1975 305° West 348 400 40,000  Level Indianapolis Center
Fri 10:24:07 PM 37.3700 -83.3147 304° West 349 402 40,000  Level Indianapolis Center
Fri 10:25:08 PM 37.4253 -83.4147 305° West 348 400 40,000  Level Indianapolis Center
Fri 10:26:09 PM 37.4803 -83.5147 305° West 348 400 40,000  Level Indianapolis Center
Fri 10:27:10 PM 37.5361 -83.6153 305° West 350 403 40,000  Level Indianapolis Center
Fri 10:28:11 PM 37.5919 -83.7158 305° West 349 402 40,000  Level Indianapolis Center
Fri 10:29:12 PM 37.6461 -83.8167 304° West 350 403 40,000  Level Indianapolis Center
Fri 10:30:13 PM 37.7014 -83.9186 304° West 350 403 40,000  Level Indianapolis Center
Fri 10:31:14 PM 37.7569 -84.0206 305° West 351 404 40,000  Level Indianapolis Center
Fri 10:32:15 PM 37.8119 -84.1222 304° West 352 405 40,000  Level Indianapolis Center
Fri 10:33:16 PM 37.8669 -84.2256 304° West 352 405 40,000 -393 Level Indianapolis Center
Fri 10:34:17 PM 37.9231 -84.3281 305° West 353 406 39,200 -885 Descending Indianapolis Center
Fri 10:35:18 PM 37.9786 -84.4314 304° West 355 409 38,200 -1,082 Descending Indianapolis Center
Fri 10:36:19 PM 38.0411 -84.5531 303° West 353 406 37,000 -1,131 Descending Indianapolis Center
Fri 10:37:20 PM 38.0958 -84.6542 305° West 348 400 35,900 -1,033 Descending Indianapolis Center
Fri 10:38:21 PM 38.1506 -84.7544 305° West 346 398 34,900 -1,033 Descending Indianapolis Center
Fri 10:39:22 PM 38.2039 -84.8575 303° West 347 399 33,800 -1,131 Descending Indianapolis Center
Fri 10:40:23 PM 38.2594 -84.9625 304° West 354 407 32,600 -1,180 Descending Indianapolis Center
Fri 10:41:24 PM 38.3133 -85.0656 304° West 349 402 31,400 -1,230 Descending Indianapolis Center
Fri 10:42:25 PM 38.3686 -85.1686 304° West 351 404 30,100 -1,279 Descending Indianapolis Center
Fri 10:43:26 PM 38.4239 -85.2803 302° West 355 409 28,800 -1,377 Descending Indianapolis Center
Fri 10:44:27 PM 38.4819 -85.3886 304° West 365 420 27,300 -1,426 Descending Indianapolis Center
Fri 10:45:28 PM 38.5386 -85.4983 303° West 369 425 25,900 -1,426 Descending Indianapolis Center
Fri 10:46:29 PM 38.5969 -85.6075 304° West 371 427 24,400 -1,426 Descending Indianapolis Center
Fri 10:47:30 PM 38.6519 -85.7156 303° West 369 425 23,000 -1,574 Descending Indianapolis Center
Fri 10:48:31 PM 38.7092 -85.8264 304° West 366 421 21,200 -1,707 Descending Indianapolis Center
Fri 10:49:33 PM 38.7636 -85.9339 303° West 360 414 19,500 -1,707 Descending Indianapolis Center
Fri 10:50:34 PM 38.8167 -86.0381 303° West 351 404 17,700 -1,574 Descending Indianapolis Center
Fri 10:51:35 PM 38.8692 -86.1400 304° West 345 397 16,300 -1,721 Descending Indianapolis Center
Fri 10:52:36 PM 38.9292 -86.2592 303° West 341 392 14,200 -1,918 Descending Indianapolis Center
Fri 10:53:37 PM 38.9789 -86.3578 303° West 333 383 12,400 -1,574 Descending Indianapolis Center
Fri 10:54:38 PM 39.0283 -86.4567 303° West 330 380 11,000 -787 Descending Indianapolis Center
Fri 10:55:39 PM 39.0764 -86.5522 303° West 324 373 10,800 -590 Descending Indianapolis Center
Fri 10:56:40 PM 39.1214 -86.6508 300° West 315 362 9,800 -1,171 Descending Indianapolis Center
Fri 10:57:42 PM 39.1544 -86.7325 298° West 287 330 8,400 -1,574 Descending Indianapolis Center
Fri 10:58:42 PM 39.1858 -86.8117 297° West 260 299 6,600 -1,636 Descending Indianapolis Center
Fri 10:59:43 PM 39.2217 -86.8978 298° West 266 306 5,100 -1,171 Descending Indianapolis Center
Fri 11:00:45 PM 39.2567 -86.9831 298° West 269 310 4,200 -878 Descending Indianapolis Center
Fri 11:01:46 PM 39.2903 -87.0633 298° West 261 300 3,300 -787 Descending Indianapolis Center
Fri 11:02:47 PM 39.3228 -87.1328 301° West 242 278 2,600 -344 Descending Indianapolis Center
Fri 11:03:48 PM 39.3561 -87.1778 314° West 186 214 2,600 -197 Level Indianapolis Center
Fri 11:04:49 PM 39.3911 -87.2203 317° Northwest 154 177 2,200 -393 Descending Indianapolis Center
Fri 11:05:50 PM 39.4119 -87.2489 313° West 144 166 1,800 -393 Descending Indianapolis Center
Fri 11:07:00 PM 39.4500 -87.3000 303° West  Level FlightAware Approximate
Fri 11:14:00 PM 39.4515 -87.3076 303° West  Level Estimated
Fri 11:15:00 PM 39.4500 -87.3000 303° West  Level FlightAware Approximate

Login

Don't have an account? Register now (free) for customized features, flight alerts, and more!